VOCB/CJB METAR and TAF weather

Enter ICAO airport designator
Station Type Date Time Source
VOCB METAR 2023/02/04 00:00 UTC NOAA

VOCB 040000Z 02005KT 3000 BR SCT012 BKN080 22/21 Q1012 NOSIG


Station Type Date Time Source
VOCB Decoded METAR 2023/02/04 00:00 UTC NOAA

Coimbatore / Peelamedu, India (VOCB) 11-02N 077-03E 399M
Feb 03, 2023 - 07:00 PM EST / 2023.02.04 0000 UTC
Wind: from the NNE (020 degrees) at 6 MPH (5 KT):0
Visibility: 1 mile(s):0
Sky conditions: mostly cloudy
Weather: mist
Temperature: 71 F (22 C)
Dew Point: 69 F (21 C)
Relative Humidity: 94%
Pressure (altimeter): 29.88 in. Hg (1012 hPa)
ob: VOCB 040000Z 02005KT 3000 BR SCT012 BKN080 22/21 Q1012 NOSIG
cycle: 0

Station Type Date Time Source
VOCB TAF 2023/02/03 18:00 UTC NOAA

TAF VOCB 031700Z 0318/0424 01005KT 3000 BR SCT012 BKN080
TEMPO 0318/0324 2000 -RA/BR SCT012 OVC080
BECMG 0400/0401 2000 BR
BECMG 0406/0407 05010KT 5000 HZ
BECMG 0418/0419 VRB02KT 3000 BR

Example: see airport list